createdAt,value
2019-03-31T00:01:07.295Z,1003.87
2019-03-31T00:01:54.434Z,1003.83
2019-03-31T00:02:54.450Z,1003.84
2019-03-31T00:03:54.421Z,1003.84
2019-03-31T00:04:54.436Z,1003.83
2019-03-31T00:05:54.403Z,1003.80
2019-03-31T00:06:54.424Z,1003.81
2019-03-31T00:07:54.388Z,1003.80
2019-03-31T00:08:54.385Z,1003.83
2019-03-31T00:09:54.374Z,1003.81
2019-03-31T00:10:54.364Z,1003.80
2019-03-31T00:11:54.357Z,1003.79
2019-03-31T00:12:54.353Z,1003.80
2019-03-31T00:13:54.343Z,1003.84
2019-03-31T00:14:54.354Z,1003.83
2019-03-31T00:15:54.337Z,1003.84
2019-03-31T00:16:54.322Z,1003.84
2019-03-31T00:17:54.315Z,1003.85
2019-03-31T00:18:54.307Z,1003.90
2019-03-31T00:19:54.305Z,1003.90
2019-03-31T00:20:54.293Z,1003.84
2019-03-31T00:21:54.294Z,1003.87
2019-03-31T00:22:54.285Z,1003.87
2019-03-31T00:23:54.297Z,1003.85
2019-03-31T00:24:54.264Z,1003.84
2019-03-31T00:25:54.256Z,1003.84
2019-03-31T00:26:54.246Z,1003.83
2019-03-31T00:27:54.277Z,1003.80
2019-03-31T00:28:54.239Z,1003.79
2019-03-31T00:29:54.224Z,1003.80
2019-03-31T00:30:54.218Z,1003.80
2019-03-31T00:31:54.211Z,1003.75
2019-03-31T00:32:54.213Z,1003.77
2019-03-31T00:33:54.200Z,1003.77
2019-03-31T00:34:54.183Z,1003.75
2019-03-31T00:35:54.178Z,1003.77
2019-03-31T00:36:54.178Z,1003.71
2019-03-31T00:37:54.175Z,1003.71
2019-03-31T00:38:54.157Z,1003.76
2019-03-31T00:39:54.150Z,1003.75
2019-03-31T00:40:54.151Z,1003.79
2019-03-31T00:41:54.131Z,1003.77
2019-03-31T00:42:54.128Z,1003.75
2019-03-31T00:43:54.116Z,1003.76
2019-03-31T00:44:54.110Z,1003.83
2019-03-31T00:45:54.102Z,1003.83
2019-03-31T00:46:54.099Z,1003.82
2019-03-31T00:47:54.088Z,1003.83
2019-03-31T00:48:54.077Z,1003.84
2019-03-31T00:49:54.110Z,1003.82
2019-03-31T00:50:54.077Z,1003.84
2019-03-31T00:51:54.068Z,1003.83
2019-03-31T00:52:54.055Z,1003.83
2019-03-31T00:53:54.040Z,1003.80
2019-03-31T00:54:54.037Z,1003.81
2019-03-31T00:55:54.027Z,1003.80
2019-03-31T00:56:54.016Z,1003.82
2019-03-31T00:57:54.010Z,1003.84
2019-03-31T00:58:54.001Z,1003.85
2019-03-31T00:59:53.990Z,1003.82
2019-03-31T01:00:54.001Z,1003.82
2019-03-31T01:01:53.977Z,1003.85
2019-03-31T01:02:53.972Z,1003.88
2019-03-31T01:03:53.963Z,1003.87
2019-03-31T01:04:53.976Z,1003.85
2019-03-31T01:05:53.951Z,1003.87
2019-03-31T01:06:53.940Z,1003.84
2019-03-31T01:07:53.936Z,1003.82
2019-03-31T01:08:53.927Z,1003.80
2019-03-31T01:09:53.913Z,1003.83
2019-03-31T01:10:53.908Z,1003.87
2019-03-31T01:11:53.898Z,1003.88
2019-03-31T01:12:53.898Z,1003.89
2019-03-31T01:13:53.885Z,1003.85
2019-03-31T01:14:53.877Z,1003.84
2019-03-31T01:15:53.873Z,1003.89
2019-03-31T01:16:53.856Z,1003.87
2019-03-31T01:17:53.854Z,1003.86
2019-03-31T01:18:53.844Z,1003.86
2019-03-31T01:19:53.836Z,1003.88
2019-03-31T01:20:53.828Z,1003.84
2019-03-31T01:21:53.818Z,1003.86
2019-03-31T01:22:53.808Z,1003.89
2019-03-31T01:23:53.801Z,1003.88
2019-03-31T01:24:53.795Z,1003.90
2019-03-31T01:25:53.790Z,1003.92
2019-03-31T01:26:53.781Z,1003.84
2019-03-31T01:27:53.773Z,1003.91
2019-03-31T01:28:53.769Z,1003.90
2019-03-31T01:29:53.761Z,1003.94
2019-03-31T01:30:53.747Z,1003.93
2019-03-31T01:31:53.743Z,1003.91
2019-03-31T01:32:53.736Z,1003.91
2019-03-31T01:33:53.724Z,1003.95
2019-03-31T01:34:53.719Z,1003.94
2019-03-31T01:35:53.708Z,1003.95
2019-03-31T01:36:53.706Z,1003.97
2019-03-31T01:37:53.691Z,1003.95
2019-03-31T01:38:53.692Z,1003.96
2019-03-31T01:39:53.680Z,1003.95
2019-03-31T01:40:53.672Z,1003.91
2019-03-31T01:41:53.664Z,1003.94
2019-03-31T01:42:53.653Z,1003.92
2019-03-31T01:43:53.643Z,1003.86
2019-03-31T01:44:53.638Z,1003.89
2019-03-31T01:45:53.627Z,1003.89
2019-03-31T01:46:53.633Z,1003.90
2019-03-31T01:47:53.610Z,1003.93
2019-03-31T01:48:53.605Z,1003.92
2019-03-31T01:49:53.595Z,1003.95
2019-03-31T01:50:53.588Z,1003.95
2019-03-31T01:51:53.578Z,1003.96
2019-03-31T01:52:53.643Z,1003.93
2019-03-31T01:53:53.561Z,1003.99
2019-03-31T01:54:53.556Z,1003.95
2019-03-31T01:55:53.544Z,1003.94
2019-03-31T01:56:53.544Z,1003.97
2019-03-31T01:57:53.534Z,1004.00
2019-03-31T01:58:53.520Z,1003.98
2019-03-31T01:59:53.514Z,1003.97
2019-03-31T02:00:53.506Z,1003.97
2019-03-31T02:02:03.561Z,1003.93
2019-03-31T02:02:53.506Z,1003.93
2019-03-31T02:03:53.483Z,1003.92
2019-03-31T02:04:53.473Z,1003.93
2019-03-31T02:05:53.465Z,1003.91
2019-03-31T02:06:53.487Z,1003.91
2019-03-31T02:07:53.463Z,1003.93
2019-03-31T02:08:53.445Z,1003.95
2019-03-31T02:09:53.430Z,1003.93
2019-03-31T02:10:53.426Z,1003.99
2019-03-31T02:11:53.415Z,1003.94
2019-03-31T02:12:53.405Z,1003.93
2019-03-31T02:13:53.405Z,1003.92
2019-03-31T02:14:53.387Z,1003.93
2019-03-31T02:15:53.382Z,1003.91
2019-03-31T02:16:53.374Z,1003.90
2019-03-31T02:17:53.364Z,1003.90
2019-03-31T02:18:53.355Z,1003.92
2019-03-31T02:19:53.350Z,1003.88
2019-03-31T02:20:53.349Z,1003.88
2019-03-31T02:21:53.331Z,1003.90
2019-03-31T02:22:53.321Z,1003.91
2019-03-31T02:23:53.317Z,1003.94
2019-03-31T02:24:53.311Z,1003.94
2019-03-31T02:25:53.299Z,1003.94
2019-03-31T02:26:53.288Z,1003.91
2019-03-31T02:27:53.283Z,1003.90
2019-03-31T02:28:53.275Z,1003.90
2019-03-31T02:29:53.271Z,1003.85
2019-03-31T02:30:53.255Z,1003.87
2019-03-31T02:31:53.257Z,1003.92
2019-03-31T02:32:53.239Z,1003.99
2019-03-31T02:33:53.233Z,1003.95
2019-03-31T02:34:53.223Z,1003.93
2019-03-31T02:35:53.219Z,1003.92
2019-03-31T02:36:53.215Z,1003.91
2019-03-31T02:37:53.198Z,1003.85
2019-03-31T02:38:53.191Z,1003.85
2019-03-31T02:39:53.177Z,1003.85
2019-03-31T02:40:53.174Z,1003.82
2019-03-31T02:41:53.165Z,1003.85
2019-03-31T02:42:53.157Z,1003.85
2019-03-31T02:43:53.145Z,1003.86
2019-03-31T02:44:53.142Z,1003.84
2019-03-31T02:45:53.148Z,1003.83
2019-03-31T02:46:53.118Z,1003.84
2019-03-31T02:47:53.113Z,1003.79
2019-03-31T02:48:53.103Z,1003.81
2019-03-31T02:49:53.096Z,1003.79
2019-03-31T02:50:53.088Z,1003.79
2019-03-31T02:51:53.072Z,1003.77
2019-03-31T02:52:53.071Z,1003.77
2019-03-31T02:53:53.057Z,1003.79
2019-03-31T02:54:53.054Z,1003.77
2019-03-31T02:55:53.045Z,1003.79
2019-03-31T02:56:53.036Z,1003.81
2019-03-31T02:57:53.025Z,1003.82
2019-03-31T02:58:53.025Z,1003.85
2019-03-31T02:59:53.016Z,1003.84
2019-03-31T03:00:53.001Z,1003.86
2019-03-31T03:01:52.992Z,1003.86
2019-03-31T03:02:52.985Z,1003.86
2019-03-31T03:03:52.974Z,1003.87
2019-03-31T03:04:52.965Z,1003.90
2019-03-31T03:05:52.956Z,1003.88
2019-03-31T03:06:52.955Z,1003.91
2019-03-31T03:07:52.936Z,1003.89
2019-03-31T03:08:52.938Z,1003.90
2019-03-31T03:09:52.924Z,1003.91
2019-03-31T03:10:52.910Z,1003.89
2019-03-31T03:11:52.900Z,1003.90
2019-03-31T03:12:52.910Z,1003.89
2019-03-31T03:13:52.892Z,1003.87
2019-03-31T03:14:52.877Z,1003.87
2019-03-31T03:15:52.871Z,1003.90
2019-03-31T03:16:52.858Z,1003.88
2019-03-31T03:17:52.854Z,1003.88
2019-03-31T03:18:52.844Z,1003.86
2019-03-31T03:19:52.835Z,1003.84
2019-03-31T03:20:52.834Z,1003.86
2019-03-31T03:21:52.814Z,1003.83
2019-03-31T03:22:52.814Z,1003.83
2019-03-31T03:23:52.800Z,1003.88
2019-03-31T03:24:52.800Z,1003.85
2019-03-31T03:25:56.135Z,1003.84
2019-03-31T03:26:52.775Z,1003.84
2019-03-31T03:27:52.777Z,1003.87
2019-03-31T03:28:52.754Z,1003.83
2019-03-31T03:29:52.763Z,1003.85
2019-03-31T03:30:52.838Z,1003.81
2019-03-31T03:31:52.733Z,1003.82
2019-03-31T03:33:13.602Z,1003.84
2019-03-31T03:33:52.721Z,1003.80
2019-03-31T03:34:52.705Z,1003.83
2019-03-31T03:35:52.694Z,1003.84
2019-03-31T03:36:52.688Z,1003.87
2019-03-31T03:37:52.674Z,1003.86
2019-03-31T03:38:52.667Z,1003.84
2019-03-31T03:39:52.674Z,1003.83
2019-03-31T03:40:52.650Z,1003.83
2019-03-31T03:41:52.640Z,1003.81
2019-03-31T03:42:52.634Z,1003.80
2019-03-31T03:43:56.377Z,1003.85
2019-03-31T03:44:52.619Z,1003.87
2019-03-31T03:45:52.603Z,1003.86
2019-03-31T03:46:52.604Z,1003.85
2019-03-31T03:47:52.595Z,1003.86
2019-03-31T03:48:52.601Z,1003.86
2019-03-31T03:49:52.568Z,1003.89
2019-03-31T03:50:52.570Z,1003.91
2019-03-31T03:51:52.556Z,1003.91
2019-03-31T03:52:52.543Z,1003.93
2019-03-31T03:53:52.533Z,1003.90
2019-03-31T03:54:52.675Z,1003.88
2019-03-31T03:55:52.514Z,1003.85
2019-03-31T03:56:52.505Z,1003.89
2019-03-31T03:57:52.503Z,1003.85
2019-03-31T03:58:52.493Z,1003.83
2019-03-31T03:59:52.478Z,1003.90
2019-03-31T04:00:52.468Z,1003.87
2019-03-31T04:01:52.475Z,1003.91
2019-03-31T04:02:52.455Z,1003.89
2019-03-31T04:03:52.444Z,1003.95
2019-03-31T04:04:52.439Z,1003.90
2019-03-31T04:05:52.426Z,1003.95
2019-03-31T04:06:52.439Z,1003.91
2019-03-31T04:07:52.413Z,1003.89
2019-03-31T04:08:52.398Z,1003.92
2019-03-31T04:09:52.394Z,1003.89
2019-03-31T04:10:52.381Z,1003.93
2019-03-31T04:11:52.373Z,1003.99
2019-03-31T04:12:52.366Z,1003.96
2019-03-31T04:13:52.357Z,1004.02
2019-03-31T04:14:52.350Z,1003.99
2019-03-31T04:15:52.335Z,1003.98
2019-03-31T04:16:52.325Z,1004.00
2019-03-31T04:17:52.321Z,1004.01
2019-03-31T04:18:52.308Z,1003.97
2019-03-31T04:19:52.298Z,1003.99
2019-03-31T04:20:52.317Z,1004.01
2019-03-31T04:21:52.277Z,1004.02
2019-03-31T04:22:52.271Z,1004.01
2019-03-31T04:23:52.268Z,1003.99
2019-03-31T04:24:52.255Z,1003.99
2019-03-31T04:25:52.246Z,1004.02
2019-03-31T04:26:52.236Z,1004.02
2019-03-31T04:27:52.224Z,1004.03
2019-03-31T04:28:52.215Z,1004.03
2019-03-31T04:29:52.204Z,1004.05
2019-03-31T04:30:52.194Z,1004.06
2019-03-31T04:31:52.213Z,1004.05
2019-03-31T04:32:52.183Z,1004.06
2019-03-31T04:33:52.980Z,1004.08
2019-03-31T04:34:52.166Z,1004.11
2019-03-31T04:35:52.156Z,1004.09
2019-03-31T04:36:52.144Z,1004.12
2019-03-31T04:37:52.131Z,1004.15
2019-03-31T04:38:52.125Z,1004.16
2019-03-31T04:39:52.121Z,1004.18
2019-03-31T04:40:52.108Z,1004.16
2019-03-31T04:41:52.095Z,1004.20
2019-03-31T04:42:52.105Z,1004.18
2019-03-31T04:43:52.083Z,1004.19
2019-03-31T04:44:52.075Z,1004.17
2019-03-31T04:45:52.063Z,1004.17
2019-03-31T04:46:52.048Z,1004.20
2019-03-31T04:47:52.040Z,1004.22
2019-03-31T04:48:52.038Z,1004.25
2019-03-31T04:49:52.021Z,1004.25
2019-03-31T04:50:52.352Z,1004.25
2019-03-31T04:51:52.004Z,1004.25
2019-03-31T04:52:51.996Z,1004.27
2019-03-31T04:53:51.984Z,1004.25
2019-03-31T04:54:51.983Z,1004.24
2019-03-31T04:55:51.964Z,1004.24
2019-03-31T04:56:51.961Z,1004.28
2019-03-31T04:57:51.945Z,1004.26
2019-03-31T04:58:51.938Z,1004.30
2019-03-31T04:59:51.927Z,1004.28
2019-03-31T05:00:51.925Z,1004.27
2019-03-31T05:01:51.917Z,1004.30
2019-03-31T05:02:51.908Z,1004.30
2019-03-31T05:04:03.975Z,1004.31
2019-03-31T05:04:51.882Z,1004.33
2019-03-31T05:05:51.877Z,1004.32
2019-03-31T05:06:51.866Z,1004.36
2019-03-31T05:07:51.863Z,1004.37
2019-03-31T05:08:51.861Z,1004.36
2019-03-31T05:09:51.833Z,1004.37
2019-03-31T05:10:51.825Z,1004.39
2019-03-31T05:11:51.815Z,1004.36
2019-03-31T05:12:51.805Z,1004.39
2019-03-31T05:13:51.806Z,1004.43
2019-03-31T05:14:51.786Z,1004.43
2019-03-31T05:15:51.806Z,1004.44
2019-03-31T05:16:51.770Z,1004.43
2019-03-31T05:17:51.764Z,1004.49
2019-03-31T05:18:51.754Z,1004.48
2019-03-31T05:19:51.768Z,1004.47
2019-03-31T05:20:51.731Z,1004.49
2019-03-31T05:21:51.725Z,1004.53
2019-03-31T05:22:52.953Z,1004.51
2019-03-31T05:23:51.784Z,1004.56
2019-03-31T05:24:51.717Z,1004.55
2019-03-31T05:25:51.686Z,1004.55
2019-03-31T05:26:51.675Z,1004.58
2019-03-31T05:27:51.666Z,1004.54
2019-03-31T05:28:51.656Z,1004.56
2019-03-31T05:29:51.647Z,1004.57
2019-03-31T05:30:51.639Z,1004.59
2019-03-31T05:31:51.628Z,1004.55
2019-03-31T05:32:51.618Z,1004.56
2019-03-31T05:33:51.613Z,1004.58
2019-03-31T05:34:51.609Z,1004.60
2019-03-31T05:35:51.590Z,1004.65
2019-03-31T05:36:51.587Z,1004.69
2019-03-31T05:37:51.659Z,1004.66
2019-03-31T05:38:51.574Z,1004.70
2019-03-31T05:39:51.552Z,1004.69
2019-03-31T05:40:51.560Z,1004.68
2019-03-31T05:41:51.538Z,1004.69
2019-03-31T05:42:51.527Z,1004.67
2019-03-31T05:44:04.854Z,1004.69
2019-03-31T05:44:51.508Z,1004.74
2019-03-31T05:45:52.534Z,1004.73
2019-03-31T05:46:51.494Z,1004.75
2019-03-31T05:47:51.487Z,1004.76
2019-03-31T05:48:51.470Z,1004.76
2019-03-31T05:49:51.460Z,1004.81
2019-03-31T05:50:51.451Z,1004.83
2019-03-31T05:51:51.440Z,1004.83
2019-03-31T05:52:51.433Z,1004.84
2019-03-31T05:53:51.430Z,1004.84
2019-03-31T05:54:51.414Z,1004.82
2019-03-31T05:55:51.407Z,1004.82
2019-03-31T05:56:51.394Z,1004.85
2019-03-31T05:57:51.387Z,1004.84
2019-03-31T05:58:51.381Z,1004.90
2019-03-31T05:59:51.393Z,1004.90
2019-03-31T06:00:51.357Z,1004.92
2019-03-31T06:01:51.352Z,1004.87
2019-03-31T06:02:51.347Z,1004.88
2019-03-31T06:03:51.335Z,1004.90
2019-03-31T06:04:51.326Z,1004.87
2019-03-31T06:05:51.314Z,1004.92
2019-03-31T06:06:51.305Z,1004.91
2019-03-31T06:07:51.296Z,1004.86
2019-03-31T06:08:51.287Z,1004.95
2019-03-31T06:09:51.277Z,1004.92
2019-03-31T06:10:51.267Z,1004.92
2019-03-31T06:11:53.397Z,1004.93
2019-03-31T06:12:51.251Z,1004.96
2019-03-31T06:13:51.247Z,1004.96
2019-03-31T06:14:51.228Z,1004.99
2019-03-31T06:15:51.221Z,1004.98
2019-03-31T06:16:51.215Z,1004.99
2019-03-31T06:17:51.206Z,1005.03
2019-03-31T06:18:51.195Z,1005.08
2019-03-31T06:19:51.185Z,1005.09
2019-03-31T06:20:51.184Z,1005.10
2019-03-31T06:21:51.172Z,1005.06
2019-03-31T06:22:51.162Z,1005.06
2019-03-31T06:23:51.149Z,1005.02
2019-03-31T06:24:51.148Z,1005.02
2019-03-31T06:25:51.134Z,1005.02
2019-03-31T06:26:51.126Z,1005.00
2019-03-31T06:27:51.116Z,1005.05
2019-03-31T06:28:51.122Z,1005.05
2019-03-31T06:29:51.098Z,1005.07
2019-03-31T06:30:51.089Z,1005.04
2019-03-31T06:31:51.081Z,1005.10
2019-03-31T06:32:51.071Z,1005.10
2019-03-31T06:33:51.081Z,1005.10
2019-03-31T06:34:51.054Z,1005.15
2019-03-31T06:35:51.049Z,1005.15
2019-03-31T06:36:51.036Z,1005.16
2019-03-31T06:37:51.027Z,1005.14
2019-03-31T06:38:51.023Z,1005.18
2019-03-31T06:39:51.010Z,1005.14
2019-03-31T06:40:51.013Z,1005.13
2019-03-31T06:41:51.007Z,1005.18
2019-03-31T06:42:50.983Z,1005.14
2019-03-31T06:43:50.984Z,1005.16
2019-03-31T06:44:50.978Z,1005.15
2019-03-31T06:45:50.957Z,1005.15
2019-03-31T06:46:50.949Z,1005.14
2019-03-31T06:47:50.940Z,1005.18
2019-03-31T06:48:50.929Z,1005.15
2019-03-31T06:49:50.920Z,1005.18
2019-03-31T06:50:50.916Z,1005.14
2019-03-31T06:51:50.903Z,1005.18
2019-03-31T06:52:50.906Z,1005.21
2019-03-31T06:53:50.886Z,1005.20
2019-03-31T06:54:50.890Z,1005.22
2019-03-31T06:55:50.872Z,1005.21
2019-03-31T06:56:50.863Z,1005.21
2019-03-31T06:57:50.864Z,1005.26
2019-03-31T06:58:50.848Z,1005.26
2019-03-31T06:59:50.837Z,1005.24
2019-03-31T07:00:50.847Z,1005.22
2019-03-31T07:01:50.821Z,1005.27
2019-03-31T07:02:50.814Z,1005.25
2019-03-31T07:03:50.803Z,1005.25
2019-03-31T07:05:00.833Z,1005.21
2019-03-31T07:05:50.786Z,1005.26
2019-03-31T07:06:50.795Z,1005.25
2019-03-31T07:07:50.772Z,1005.24
2019-03-31T07:08:50.782Z,1005.22
2019-03-31T07:09:50.753Z,1005.25
2019-03-31T07:10:50.765Z,1005.26
2019-03-31T07:11:50.736Z,1005.22
2019-03-31T07:12:50.800Z,1005.25
2019-03-31T07:13:50.720Z,1005.26
2019-03-31T07:14:50.716Z,1005.30
2019-03-31T07:15:50.705Z,1005.27
2019-03-31T07:16:50.698Z,1005.29
2019-03-31T07:17:50.687Z,1005.31
2019-03-31T07:18:50.679Z,1005.34
2019-03-31T07:19:50.688Z,1005.36
2019-03-31T07:20:50.670Z,1005.36
2019-03-31T07:21:50.662Z,1005.41
2019-03-31T07:22:50.649Z,1005.41
2019-03-31T07:23:50.651Z,1005.40
2019-03-31T07:24:50.640Z,1005.43
2019-03-31T07:25:50.645Z,1005.39
2019-03-31T07:26:50.624Z,1005.37
2019-03-31T07:27:50.607Z,1005.36
2019-03-31T07:28:50.601Z,1005.40
2019-03-31T07:29:50.592Z,1005.41
2019-03-31T07:30:50.618Z,1005.40
2019-03-31T07:31:50.581Z,1005.42
2019-03-31T07:32:50.578Z,1005.40
2019-03-31T07:33:50.563Z,1005.42
2019-03-31T07:34:50.559Z,1005.43
2019-03-31T07:35:50.548Z,1005.43
2019-03-31T07:36:50.549Z,1005.45
2019-03-31T07:37:50.531Z,1005.44
2019-03-31T07:38:50.536Z,1005.47
2019-03-31T07:39:50.624Z,1005.51
2019-03-31T07:40:50.513Z,1005.53
2019-03-31T07:41:50.505Z,1005.53
2019-03-31T07:42:51.297Z,1005.52
2019-03-31T07:43:50.492Z,1005.52
2019-03-31T07:44:50.485Z,1005.53
2019-03-31T07:45:50.479Z,1005.53
2019-03-31T07:46:50.474Z,1005.56
2019-03-31T07:47:50.463Z,1005.61
2019-03-31T07:48:50.455Z,1005.57
2019-03-31T07:49:50.454Z,1005.61
2019-03-31T07:50:50.443Z,1005.53
2019-03-31T07:51:50.435Z,1005.54
2019-03-31T07:52:50.429Z,1005.53
2019-03-31T07:53:50.421Z,1005.52
2019-03-31T07:54:50.415Z,1005.52
2019-03-31T07:55:50.415Z,1005.53
2019-03-31T07:56:50.401Z,1005.56
2019-03-31T07:57:50.392Z,1005.58
2019-03-31T07:58:50.397Z,1005.53
2019-03-31T07:59:50.405Z,1005.55
2019-03-31T08:00:50.393Z,1005.55
2019-03-31T08:01:50.371Z,1005.55
2019-03-31T08:02:50.360Z,1005.54
2019-03-31T08:03:50.358Z,1005.60
2019-03-31T08:04:50.349Z,1005.59
2019-03-31T08:05:50.343Z,1005.61
2019-03-31T08:06:50.334Z,1005.66
2019-03-31T08:07:50.330Z,1005.67
2019-03-31T08:08:53.243Z,1005.66
2019-03-31T08:09:50.317Z,1005.71
2019-03-31T08:10:50.314Z,1005.72
2019-03-31T08:11:50.306Z,1005.76
2019-03-31T08:12:50.336Z,1005.78
2019-03-31T08:13:50.292Z,1005.81
2019-03-31T08:14:50.288Z,1005.82
2019-03-31T08:15:50.282Z,1005.84
2019-03-31T08:16:50.275Z,1005.83
2019-03-31T08:17:50.269Z,1005.85
2019-03-31T08:18:50.271Z,1005.88
2019-03-31T08:19:50.336Z,1005.86
2019-03-31T08:20:50.265Z,1005.91
2019-03-31T08:21:50.244Z,1005.94
2019-03-31T08:22:50.239Z,1005.99
2019-03-31T08:23:50.245Z,1005.94
2019-03-31T08:24:50.231Z,1005.97
2019-03-31T08:25:50.221Z,1005.97
2019-03-31T08:26:50.217Z,1005.98
2019-03-31T08:27:50.213Z,1006.01
2019-03-31T08:28:50.207Z,1005.96
2019-03-31T08:30:00.125Z,1005.97
2019-03-31T08:30:50.192Z,1006.02
2019-03-31T08:31:50.187Z,1006.01
2019-03-31T08:32:50.186Z,1006.10
2019-03-31T08:33:50.189Z,1006.13
2019-03-31T08:34:50.182Z,1006.18
2019-03-31T08:35:50.172Z,1006.21
2019-03-31T08:36:50.164Z,1006.22
2019-03-31T08:37:50.165Z,1006.22
2019-03-31T08:38:50.155Z,1006.23
2019-03-31T08:39:50.155Z,1006.24
2019-03-31T08:40:50.143Z,1006.28
2019-03-31T08:41:50.136Z,1006.25
2019-03-31T08:42:50.135Z,1006.28
2019-03-31T08:43:50.131Z,1006.26
2019-03-31T08:44:50.121Z,1006.26
2019-03-31T08:45:50.116Z,1006.29
2019-03-31T08:46:50.112Z,1006.27
2019-03-31T08:47:50.104Z,1006.36
2019-03-31T08:48:50.102Z,1006.34
2019-03-31T08:49:50.095Z,1006.38
2019-03-31T08:50:50.093Z,1006.38
2019-03-31T08:51:50.083Z,1006.37
2019-03-31T08:52:50.076Z,1006.45
2019-03-31T08:53:50.071Z,1006.39
2019-03-31T08:54:50.066Z,1006.41
2019-03-31T08:55:50.061Z,1006.42
2019-03-31T08:56:50.053Z,1006.41
2019-03-31T08:57:50.049Z,1006.47
2019-03-31T08:58:50.052Z,1006.47
2019-03-31T08:59:50.036Z,1006.45
2019-03-31T09:00:50.035Z,1006.46
2019-03-31T09:01:50.027Z,1006.43
2019-03-31T09:02:50.019Z,1006.47
2019-03-31T09:03:50.020Z,1006.47
2019-03-31T09:04:50.027Z,1006.44
2019-03-31T09:06:01.118Z,1006.47
2019-03-31T09:06:50.009Z,1006.46
2019-03-31T09:07:49.993Z,1006.46
2019-03-31T09:08:49.989Z,1006.49
2019-03-31T09:09:49.981Z,1006.45
2019-03-31T09:10:49.977Z,1006.50
2019-03-31T09:11:49.974Z,1006.55
2019-03-31T09:12:49.972Z,1006.51
2019-03-31T09:13:49.964Z,1006.49
2019-03-31T09:14:49.972Z,1006.51
2019-03-31T09:15:49.954Z,1006.51
2019-03-31T09:16:49.946Z,1006.53
2019-03-31T09:17:49.952Z,1006.52
2019-03-31T09:18:49.936Z,1006.50
2019-03-31T09:19:49.932Z,1006.52
2019-03-31T09:20:49.929Z,1006.59
2019-03-31T09:21:49.930Z,1006.51
2019-03-31T09:22:49.922Z,1006.56
2019-03-31T09:23:49.909Z,1006.53
2019-03-31T09:24:49.914Z,1006.56
2019-03-31T09:25:49.901Z,1006.63
2019-03-31T09:26:49.901Z,1006.65
2019-03-31T09:27:49.891Z,1006.69
2019-03-31T09:28:49.889Z,1006.65
2019-03-31T09:29:49.882Z,1006.61
2019-03-31T09:30:49.877Z,1006.60
2019-03-31T09:31:49.875Z,1006.64
2019-03-31T09:32:49.865Z,1006.68
2019-03-31T09:33:49.864Z,1006.65
2019-03-31T09:34:49.934Z,1006.63
2019-03-31T09:35:49.853Z,1006.67
2019-03-31T09:36:49.851Z,1006.66
2019-03-31T09:37:49.849Z,1006.76
2019-03-31T09:38:49.839Z,1006.70
2019-03-31T09:39:49.837Z,1006.80
2019-03-31T09:40:49.835Z,1006.78
2019-03-31T09:41:49.832Z,1006.80
2019-03-31T09:42:49.822Z,1006.80
2019-03-31T09:43:49.832Z,1006.83
2019-03-31T09:44:49.813Z,1006.80
2019-03-31T09:45:49.802Z,1006.81
2019-03-31T09:46:49.805Z,1006.80
2019-03-31T09:47:49.793Z,1006.82
2019-03-31T09:48:49.790Z,1006.82
2019-03-31T09:49:49.787Z,1006.87
2019-03-31T09:50:49.786Z,1006.82
2019-03-31T09:51:49.782Z,1006.83
2019-03-31T09:52:49.802Z,1006.89
2019-03-31T09:53:49.767Z,1006.81
2019-03-31T09:54:49.782Z,1006.81
2019-03-31T09:55:49.759Z,1006.84
2019-03-31T09:56:49.752Z,1006.85
2019-03-31T09:57:49.750Z,1006.83
2019-03-31T09:58:49.743Z,1006.83
2019-03-31T09:59:49.740Z,1006.87
2019-03-31T10:00:49.741Z,1006.82
2019-03-31T10:01:49.726Z,1006.81
2019-03-31T10:02:49.725Z,1006.82
2019-03-31T10:03:49.765Z,1006.85
2019-03-31T10:04:49.717Z,1006.82
2019-03-31T10:05:49.716Z,1006.81
2019-03-31T10:06:49.707Z,1006.83
2019-03-31T10:07:49.700Z,1006.84
2019-03-31T10:08:49.727Z,1006.86
2019-03-31T10:09:49.710Z,1006.85
2019-03-31T10:10:49.762Z,1006.87
2019-03-31T10:11:49.685Z,1006.84
2019-03-31T10:12:49.680Z,1006.89
2019-03-31T10:13:49.759Z,1006.87
2019-03-31T10:14:49.663Z,1006.89
2019-03-31T10:15:49.662Z,1006.81
2019-03-31T10:16:49.657Z,1006.88
2019-03-31T10:17:49.654Z,1006.84
2019-03-31T10:18:49.644Z,1006.87
2019-03-31T10:19:49.650Z,1006.81
2019-03-31T10:20:49.635Z,1006.81
2019-03-31T10:21:49.633Z,1006.80
2019-03-31T10:22:49.628Z,1006.76
2019-03-31T10:23:49.622Z,1006.73
2019-03-31T10:24:49.618Z,1006.69
2019-03-31T10:25:49.611Z,1006.67
2019-03-31T10:26:49.608Z,1006.75
2019-03-31T10:27:49.602Z,1006.69
2019-03-31T10:28:49.601Z,1006.71
2019-03-31T10:29:49.594Z,1006.70
2019-03-31T10:30:49.589Z,1006.74
2019-03-31T10:31:49.582Z,1006.71
2019-03-31T10:32:49.578Z,1006.66
2019-03-31T10:33:49.575Z,1006.69
2019-03-31T10:34:49.572Z,1006.73
2019-03-31T10:35:49.568Z,1006.72
2019-03-31T10:36:49.619Z,1006.71
2019-03-31T10:37:49.566Z,1006.76
2019-03-31T10:38:49.552Z,1006.76
2019-03-31T10:39:49.550Z,1006.82
2019-03-31T10:40:49.543Z,1006.81
2019-03-31T10:41:49.538Z,1006.86
2019-03-31T10:42:49.541Z,1006.80
2019-03-31T10:43:49.549Z,1006.80
2019-03-31T10:44:49.526Z,1006.80
2019-03-31T10:45:49.534Z,1006.84
2019-03-31T10:46:49.538Z,1006.83
2019-03-31T10:47:49.517Z,1006.83
2019-03-31T10:48:49.510Z,1006.88
2019-03-31T10:49:49.507Z,1006.82
2019-03-31T10:50:49.507Z,1006.82
2019-03-31T10:51:49.498Z,1006.85
2019-03-31T10:52:49.513Z,1006.89
2019-03-31T10:53:49.497Z,1006.96
2019-03-31T10:54:49.489Z,1006.90
2019-03-31T10:55:49.484Z,1006.95
2019-03-31T10:56:49.492Z,1006.90
2019-03-31T10:57:49.480Z,1006.96
2019-03-31T10:58:49.473Z,1006.97
2019-03-31T10:59:49.468Z,1006.92
2019-03-31T11:00:49.472Z,1006.95
2019-03-31T11:01:49.478Z,1006.97
2019-03-31T11:02:49.456Z,1006.99
2019-03-31T11:03:49.453Z,1006.94
2019-03-31T11:04:49.453Z,1006.97
2019-03-31T11:05:49.448Z,1006.95
2019-03-31T11:06:58.946Z,1006.94
2019-03-31T11:07:49.444Z,1006.95
2019-03-31T11:08:49.433Z,1006.96
2019-03-31T11:09:49.425Z,1006.99
2019-03-31T11:10:49.425Z,1006.97
2019-03-31T11:11:49.421Z,1007.01
2019-03-31T11:12:50.901Z,1007.04
2019-03-31T11:13:49.409Z,1007.04
2019-03-31T11:14:49.407Z,1007.05
2019-03-31T11:15:49.401Z,1007.07
2019-03-31T11:16:49.398Z,1007.06
2019-03-31T11:17:49.395Z,1007.05
2019-03-31T11:18:49.408Z,1007.08
2019-03-31T11:19:49.386Z,1007.08
2019-03-31T11:20:49.380Z,1007.08
2019-03-31T11:21:49.376Z,1007.14
2019-03-31T11:22:49.402Z,1007.10
2019-03-31T11:23:49.367Z,1007.14
2019-03-31T11:24:49.361Z,1007.17
2019-03-31T11:25:49.356Z,1007.11
2019-03-31T11:26:49.353Z,1007.20
2019-03-31T11:27:49.350Z,1007.18
2019-03-31T11:28:49.349Z,1007.18
2019-03-31T11:29:49.344Z,1007.28
2019-03-31T11:30:49.344Z,1007.25
2019-03-31T11:31:49.332Z,1007.24
2019-03-31T11:32:49.330Z,1007.27
2019-03-31T11:33:49.319Z,1007.19
2019-03-31T11:34:49.313Z,1007.22
2019-03-31T11:35:49.316Z,1007.21
2019-03-31T11:36:49.306Z,1007.22
2019-03-31T11:37:49.302Z,1007.29
2019-03-31T11:38:49.298Z,1007.28
2019-03-31T11:39:49.291Z,1007.31
2019-03-31T11:40:49.289Z,1007.29
2019-03-31T11:41:49.287Z,1007.25
2019-03-31T11:42:49.280Z,1007.30
2019-03-31T11:43:49.276Z,1007.22
2019-03-31T11:44:49.267Z,1007.23
2019-03-31T11:45:49.260Z,1007.21
2019-03-31T11:46:49.259Z,1007.23
2019-03-31T11:47:49.255Z,1007.23
2019-03-31T11:48:49.253Z,1007.20
2019-03-31T11:49:49.243Z,1007.22
2019-03-31T11:50:49.238Z,1007.22
2019-03-31T11:51:49.235Z,1007.26
2019-03-31T11:52:49.230Z,1007.23
2019-03-31T11:53:49.224Z,1007.24
2019-03-31T11:54:51.175Z,1007.24
2019-03-31T11:55:49.214Z,1007.30
2019-03-31T11:56:49.210Z,1007.27
2019-03-31T11:57:49.206Z,1007.31
2019-03-31T11:58:49.210Z,1007.27
2019-03-31T11:59:49.778Z,1007.22
2019-03-31T12:00:49.188Z,1007.25
2019-03-31T12:01:49.187Z,1007.20
2019-03-31T12:02:49.183Z,1007.19
2019-03-31T12:03:49.183Z,1007.21
2019-03-31T12:04:49.166Z,1007.20
2019-03-31T12:05:49.187Z,1007.19